Latest Weather Observations for Eucla

IDW60801

Issued at 10:03 am WST Sunday 2 August 2015 (issued every 30 minutes, with the page automatically refreshed every 10 minutes)

About weather observations | Map of weather stations | Latest weather observations for WA | Other Formats
Station Details ID: 011003 Name: EUCLA Lat: -31.68 Lon: 128.90 Height: 93.1 m
Data from the previous 72 hours. | See also: Recent months at Eucla
Date/Time
WST
Temp
°C
App
Temp
°C
Dew
Point
Rel
Hum
%
Delta-T
°C
Wind Press
QNH
hPa
Press
MSL
hPa
Rain
since 9 am
mm
Dir
 
Spd
km/h
Gust
km/h
Spd
kts
Gust
kts
02/10:00am 12.9 9.4 5.6 61 3.4 SSW 13 20 7 11 1030.0 1030.1 0.0
02/09:30am 12.8 9.4 5.9 63 3.2 SSW 13 24 7 13 1030.0 1030.1 0.0
02/09:00am 12.8 9.5 6.6 66 3.0 S 13 19 7 10 1029.8 1029.9 4.8
02/08:30am 11.8 7.3 6.3 69 2.6 S 19 30 10 16 1029.4 1029.5 4.8
02/08:00am 11.3 8.5 7.0 75 2.0 SW 11 17 6 9 1029.0 1029.1 4.8
02/07:30am 11.4 8.0 5.9 69 2.6 S 13 17 7 9 1028.6 1028.7 4.8
02/07:00am 11.0 7.7 4.7 65 2.8 SW 11 15 6 8 1028.1 1028.1 4.8
02/06:30am 10.7 7.4 4.4 65 2.8 SSW 11 24 6 13 1027.7 1027.7 4.8
02/06:00am 11.1 7.1 4.8 65 2.8 S 15 24 8 13 1027.2 1027.2 4.8
02/05:30am 10.1 6.6 5.5 73 2.1 SW 13 19 7 10 1026.7 1026.7 4.8
02/05:00am 10.1 6.9 5.3 72 2.2 SW 11 17 6 9 1026.3 1026.3 4.8
02/04:30am 10.0 6.8 5.2 72 2.2 WSW 11 17 6 9 1026.1 1026.1 4.8
02/04:00am 10.5 7.7 5.1 69 2.4 SSW 9 11 5 6 1025.8 1025.8 4.8
02/03:30am 10.1 7.2 4.7 69 2.4 SSW 9 13 5 7 1025.6 1025.6 4.8
02/03:00am 10.7 6.8 5.5 70 2.4 SSW 15 20 8 11 1025.5 1025.5 4.8
02/02:30am 10.5 6.8 4.6 67 2.7 SSW 13 19 7 10 1025.6 1025.6 4.8
02/02:00am 10.9 7.1 5.9 71 2.3 S 15 22 8 12 1025.6 1025.6 4.8
02/01:30am 10.5 7.0 5.3 70 2.4 SSW 13 19 7 10 1025.5 1025.5 4.8
02/01:00am 11.3 8.0 6.6 73 2.2 S 13 19 7 10 1025.5 1025.5 4.8
02/12:30am 10.3 7.3 5.9 74 2.0 S 11 17 6 9 1025.4 1025.4 4.8
02/12:00am 10.5 7.2 6.3 75 2.0 S 13 20 7 11 1025.1 1025.1 4.8
 
Date/Time
WST
Temp
°C
App
Temp
°C
Dew
Point
Rel
Hum
%
Delta-T
°C
Wind Press
QNH
hPa
Press
MSL
hPa
Rain
since 9 am
mm
Dir
 
Spd
km/h
Gust
km/h
Spd
kts
Gust
kts
01/11:30pm 10.7 7.4 6.5 75 2.0 S 13 20 7 11 1025.0 1025.0 4.8
01/11:00pm 11.2 7.9 8.2 82 1.5 S 15 24 8 13 1024.9 1024.9 4.8
01/10:30pm 11.4 7.9 8.8 84 1.3 SSE 17 24 9 13 1024.8 1024.8 4.8
01/10:00pm 11.2 8.5 8.9 86 1.1 SSE 13 17 7 9 1024.7 1024.7 4.8
01/09:30pm 11.0 8.8 9.3 89 0.9 S 11 17 6 9 1024.4 1024.4 4.8
01/09:00pm 11.0 8.5 9.8 92 0.6 SSE 13 22 7 12 1024.3 1024.3 4.8
01/08:30pm 11.1 9.8 10.0 93 0.6 S 7 9 4 5 1024.0 1024.0 3.8
01/08:00pm 11.1 9.4 10.0 93 0.6 SE 9 13 5 7 1023.8 1023.8 3.6
01/07:30pm 10.9 8.4 9.8 93 0.6 SSE 13 26 7 14 1023.4 1023.4 3.6
01/07:00pm 11.2 9.6 10.1 93 0.6 SSW 9 13 5 7 1023.0 1023.0 3.6
01/06:30pm 10.9 9.5 9.7 92 0.6 SW 7 9 4 5 1022.4 1022.4 3.6
01/06:00pm 10.9 9.4 9.3 90 0.8 SSE 7 9 4 5 1021.8 1021.8 3.6
01/05:30pm 11.5 9.4 9.6 88 1.0 S 11 17 6 9 1021.6 1021.6 3.6
01/05:00pm 11.6 9.6 8.8 83 1.4 SSE 9 15 5 8 1021.4 1021.4 3.6
01/04:30pm 11.7 9.8 9.1 84 1.3 SE 9 13 5 7 1021.0 1021.0 3.6
01/04:00pm 11.9 9.2 9.1 83 1.4 SSE 13 19 7 10 1020.7 1020.7 3.6
01/03:30pm 12.1 9.9 9.3 83 1.4 SE 11 17 6 9 1020.2 1020.2 3.6
01/03:00pm 11.8 9.3 9.7 87 1.1 SE 13 19 7 10 1020.0 1020.0 3.6
01/02:30pm 11.9 9.5 10.0 88 1.0 SE 13 20 7 11 1019.4 1019.3 3.6
01/02:00pm 11.2 8.8 9.9 92 0.7 SE 13 19 7 10 1019.1 1019.0 3.6
01/01:30pm 11.3 7.8 10.2 93 0.6 ESE 19 28 10 15 1018.2 1018.2 3.6
01/01:00pm 11.3 7.7 10.0 92 0.7 SE 19 28 10 15 1018.2 1018.2 3.6
01/12:30pm 11.2 8.0 9.9 92 0.7 SE 17 28 9 15 1018.5 1018.5 3.2
01/12:00pm 11.1 7.4 9.5 90 0.8 ESE 19 28 10 15 1018.0 1018.0 2.8
01/11:30am 11.0 7.6 9.1 88 1.0 ESE 17 28 9 15 1018.7 1018.7 2.4
01/11:00am 11.0 7.2 9.8 92 0.6 ESE 20 33 11 18 1019.1 1019.0 2.2
01/10:30am 11.2 8.0 10.1 93 0.6 SE 17 30 9 16 1018.7 1018.7 2.2
01/10:00am 10.8 7.0 9.7 93 0.6 SE 20 30 11 16 1019.5 1019.5 1.8
01/09:30am 10.9 7.1 9.7 92 0.6 SE 20 33 11 18 1019.6 1019.6 0.8
01/09:00am 11.0 7.2 9.8 92 0.6 SE 20 33 11 18 1018.5 1018.5 9.6
01/08:30am 10.8 6.6 9.6 92 0.6 SE 22 39 12 21 1018.6 1018.6 9.0
01/08:00am 10.6 6.0 9.5 93 0.6 SE 24 37 13 20 1018.4 1018.4 8.4
01/07:30am 10.9 6.8 10.0 94 0.5 SSE 22 37 12 20 1017.9 1018.0 7.2
01/07:00am 11.5 7.2 10.7 95 0.4 SE 24 35 13 19 1017.2 1017.3 5.2
01/06:30am 12.4 9.2 11.3 93 0.6 SE 19 28 10 15 1016.8 1016.9 4.2
01/06:00am 12.5 9.2 11.6 94 0.5 SE 20 33 11 18 1016.4 1016.5 4.2
01/05:30am 12.3 9.1 11.2 93 0.6 SE 19 28 10 15 1015.8 1015.8 4.2
01/05:00am 12.4 9.3 11.6 95 0.4 SE 19 30 10 16 1016.2 1016.2 4.0
01/04:30am 12.8 9.6 12.0 95 0.4 SE 20 32 11 17 1015.3 1015.3 4.0
01/04:00am 12.6 9.9 11.8 95 0.4 SE 17 24 9 13 1015.2 1015.2 4.0
01/03:30am 12.3 9.0 11.7 96 0.3 SE 20 32 11 17 1014.8 1014.8 4.0
01/03:00am 12.7 10.1 12.1 96 0.3 SSE 17 22 9 12 1015.2 1015.2 4.0
01/02:55am 12.7 10.1 12.1 96 0.3 SSE 17 22 9 12 1015.3 1015.3 4.0
01/02:35am 13.0 10.9 12.4 96 0.3 SSE 15 30 8 16 1017.3 1017.4 3.2
01/02:30am 12.9 10.0 12.3 96 0.3 SE 19 30 10 16 1014.9 1014.9 3.2
01/02:00am 13.1 10.1 12.6 97 0.3 SE 20 33 11 18 1014.5 1014.5 3.2
01/01:30am 13.6 11.0 13.1 97 0.3 SE 19 28 10 15 1014.2 1014.2 3.2
01/01:00am 13.9 11.4 13.4 97 0.3 SE 19 28 10 15 1014.4 1014.4 3.2
01/12:30am 14.2 12.1 13.7 97 0.3 SE 17 30 9 16 1014.5 1014.5 3.2
01/12:00am 14.5 13.3 14.0 97 0.3 SSE 13 19 7 10 1014.4 1014.4 3.2
 
Date/Time
WST
Temp
°C
App
Temp
°C
Dew
Point
Rel
Hum
%
Delta-T
°C
Wind Press
QNH
hPa
Press
MSL
hPa
Rain
since 9 am
mm
Dir
 
Spd
km/h
Gust
km/h
Spd
kts
Gust
kts
31/11:30pm 14.6 13.4 14.0 96 0.3 SSE 13 19 7 10 1014.3 1014.3 3.2
31/11:00pm 14.5 13.3 13.9 96 0.3 SSE 13 17 7 9 1014.1 1014.1 3.2
31/10:30pm 14.5 13.3 13.9 96 0.3 SSE 13 15 7 8 1014.5 1014.5 3.2
31/10:00pm 14.5 13.3 13.9 96 0.3 SSE 13 17 7 9 1014.6 1014.6 3.2
31/09:30pm 14.6 13.3 13.8 95 0.4 S 13 17 7 9 1015.3 1015.3 3.0
31/09:00pm 14.6 12.5 13.6 94 0.6 SSW 17 20 9 11 1016.0 1016.0 0.0
31/08:30pm 14.8 13.5 13.7 93 0.6 SSW 13 20 7 11 1015.7 1015.7 0.0
31/08:00pm 14.8 13.4 13.3 91 0.8 S 13 15 7 8 1015.2 1015.2 0.0
31/07:30pm 14.9 13.1 13.3 90 0.9 SSE 15 20 8 11 1015.1 1015.1 0.0
31/07:00pm 14.9 13.6 13.6 92 0.7 S 13 17 7 9 1015.9 1015.9 0.0
31/06:30pm 15.0 14.0 13.5 91 0.8 S 11 15 6 8 1014.7 1014.7 0.0
31/06:00pm 15.5 14.7 12.8 84 1.5 SSE 9 17 5 9 1014.4 1014.4 0.0
31/05:30pm 16.1 15.7 13.0 82 1.7 ESE 7 9 4 5 1013.8 1013.8 0.0
31/05:00pm 16.3 15.8 12.8 80 1.9 ENE 7 9 4 5 1013.5 1013.5 0.0
31/04:30pm 16.1 15.6 12.8 81 1.8 SE 7 9 4 5 1013.5 1013.5 0.0
31/04:00pm 16.2 15.5 13.1 82 1.7 SE 9 11 5 6 1013.8 1013.8 0.0
31/03:30pm 16.7 15.2 13.0 79 2.1 SSE 13 15 7 8 1013.8 1013.8 0.0
31/03:00pm 18.6 18.4 13.5 72 2.9 SE 7 9 4 5 1013.3 1013.3 0.0
31/02:30pm 19.1 18.4 13.3 69 3.3 SE 9 11 5 6 1013.3 1013.3 0.0
31/02:00pm 21.1 21.1 13.5 62 4.4 W 6 9 3 5 1013.4 1013.4 0.0
31/01:30pm 20.0 19.9 13.9 68 3.5 SSW 7 11 4 6 1013.8 1013.8 0.0
31/01:00pm 19.0 18.7 13.4 70 3.2 WSW 7 9 4 5 1014.3 1014.3 0.0
31/12:30pm 19.7 19.4 13.2 66 3.7 NW 7 11 4 6 1014.4 1014.4 0.0
31/12:00pm 20.3 20.1 13.5 65 3.9 NNW 7 11 4 6 1015.1 1015.1 0.0
31/11:30am 19.3 18.4 13.7 70 3.2 N 11 20 6 11 1016.0 1016.0 0.0
31/11:00am 18.4 15.9 13.5 73 2.8 N 19 26 10 14 1016.1 1016.1 0.0
31/10:30am 16.5 13.9 13.2 81 1.9 N 19 26 10 14 1016.5 1016.6 0.0
31/10:00am 15.7 13.1 13.2 85 1.4 N 19 30 10 16 1017.1 1017.2 0.0
31/09:30am 14.5 11.5 12.5 88 1.1 N 20 28 11 15 1017.8 1017.9 0.0
31/09:00am 14.0 11.1 12.4 90 0.9 N 19 28 10 15 1018.1 1018.2 0.8
31/08:30am 13.1 10.2 12.2 94 0.5 N 19 26 10 14 1018.0 1018.1 0.8
31/08:00am 12.7 9.7 11.9 95 0.4 N 19 30 10 16 1018.4 1018.5 0.8
31/07:30am 12.3 9.0 11.5 95 0.4 N 20 30 11 16 1018.8 1018.9 0.8
31/07:00am 12.2 8.8 11.4 95 0.4 N 20 30 11 16 1019.1 1019.1 0.4
31/06:30am 12.2 9.8 11.4 95 0.4 N 15 20 8 11 1019.5 1019.5 0.4
31/06:00am 12.3 10.3 11.4 94 0.5 N 13 17 7 9 1019.7 1019.7 0.0
31/05:30am 12.3 9.9 11.4 94 0.5 N 15 17 8 9 1019.3 1019.3 0.0
31/05:00am 12.2 10.2 11.4 95 0.4 N 13 17 7 9 1019.1 1019.1 0.0
31/04:30am 12.2 9.8 11.4 95 0.4 NNE 15 19 8 10 1018.6 1018.7 0.0
31/04:00am 12.2 9.9 11.6 96 0.3 NNE 15 22 8 12 1018.9 1019.0 0.0
31/03:30am 12.1 9.7 11.5 96 0.3 NNE 15 19 8 10 1018.8 1018.9 0.0
31/03:00am 11.9 9.5 11.4 97 0.3 NNE 15 20 8 11 1019.3 1019.3 0.0
31/02:30am 11.9 9.5 11.4 97 0.3 NNE 15 19 8 10 1019.5 1019.5 0.0
31/02:00am 11.8 9.7 11.3 97 0.3 NNE 13 15 7 8 1020.1 1020.1 0.0
31/01:30am 11.8 10.1 11.3 97 0.3 NNE 11 15 6 8 1020.8 1020.8 0.0
31/01:00am 11.4 9.2 10.8 96 0.3 NNE 13 17 7 9 1021.1 1021.1 0.0
31/12:30am 11.8 10.1 11.2 96 0.3 NNE 11 11 6 6 1021.5 1021.5 0.0
31/12:00am 11.7 10.7 11.1 96 0.3 NE 7 9 4 5 1022.3 1022.3 0.0
 
Date/Time
WST
Temp
°C
App
Temp
°C
Dew
Point
Rel
Hum
%
Delta-T
°C
Wind Press
QNH
hPa
Press
MSL
hPa
Rain
since 9 am
mm
Dir
 
Spd
km/h
Gust
km/h
Spd
kts
Gust
kts
30/11:30pm 12.4 13.0 11.8 96 0.3 CALM 0 0 0 0 1022.8 1022.8 0.0
30/11:00pm 12.7 12.0 12.1 96 0.3 ENE 7 11 4 6 1022.4 1022.4 0.0
30/10:30pm 12.7 11.6 12.1 96 0.3 E 9 11 5 6 1022.4 1022.4 0.0
30/10:00pm 12.7 12.0 12.1 96 0.3 ENE 7 9 4 5 1022.9 1022.9 0.0
30/09:30pm 13.6 13.8 13.0 96 0.3 E 4 6 2 3 1023.4 1023.4 0.0
30/09:00pm 13.7 13.3 13.1 96 0.3 ESE 7 9 4 5 1023.6 1023.6 0.0
30/08:30pm 13.5 13.0 12.7 95 0.4 E 7 9 4 5 1023.4 1023.4 0.0
30/08:00pm 13.5 12.6 12.7 95 0.4 E 9 11 5 6 1023.4 1023.4 0.0
30/07:30pm 13.5 13.6 12.7 95 0.4 E 4 9 2 5 1023.9 1023.9 0.0
30/07:00pm 13.4 13.4 12.5 94 0.5 SSE 4 7 2 4 1024.1 1024.1 0.0
30/06:30pm 13.2 12.7 12.1 93 0.6 ESE 6 6 3 3 1023.9 1023.9 0.0
30/06:00pm 13.5 13.0 12.2 92 0.7 SSE 6 7 3 4 1023.7 1023.7 0.0
30/05:30pm 14.2 13.8 12.9 92 0.7 SSE 7 9 4 5 1023.3 1023.3 0.0
30/05:00pm 14.3 13.4 12.7 90 0.9 SSE 9 13 5 7 1023.1 1023.1 0.0
30/04:30pm 15.0 13.8 12.9 87 1.2 SSE 11 15 6 8 1022.8 1022.8 0.0
30/04:00pm 15.4 14.5 12.5 83 1.6 SSE 9 13 5 7 1022.5 1022.5 0.0
30/03:30pm 16.0 14.5 13.1 83 1.6 S 13 17 7 9 1022.4 1022.4 0.0
30/03:00pm 16.2 14.5 12.6 79 2.0 SSE 13 19 7 10 1022.0 1022.0 0.0
30/02:30pm 17.5 16.1 12.2 71 2.9 SSE 11 17 6 9 1022.0 1022.0 0.0
30/02:00pm 17.2 15.2 11.5 69 3.1 S 13 20 7 11 1022.0 1022.0 0.0
30/01:30pm 18.1 16.2 11.9 67 3.4 S 13 19 7 10 1022.3 1022.3 0.0
30/01:00pm 18.6 16.7 11.7 64 3.8 S 13 20 7 11 1022.3 1022.3 0.0
30/12:30pm 18.9 16.6 11.7 63 4.0 SSW 15 22 8 12 1022.5 1022.5 0.0
30/12:00pm 18.5 16.2 11.6 64 3.8 SSW 15 20 8 11 1022.5 1022.5 0.0
30/11:30am 18.6 15.8 11.4 63 4.0 SSW 17 26 9 14 1022.9 1022.9 0.0
30/11:00am 18.8 16.4 11.4 62 4.0 S 15 20 8 11 1023.0 1023.0 0.0
30/10:30am 18.0 15.3 11.6 66 3.5 SSW 17 24 9 13 1023.5 1023.5 0.0

Other Formats:

Comma delimited format used in spreadsheet applications
http://www.bom.gov.au/fwo/IDW60801/IDW60801.94647.axf

JavaScript Object Notation format (JSON) in row-major order
http://www.bom.gov.au/fwo/IDW60801/IDW60801.94647.json